LAO weather

Laoag International Airport
Laoag City, Ilocos Norte Province, Philippines

Public forecast

Using degrees Celsius for public forecast. Weather courtesy of forecast.io.

METAR (pilot weather report)

Retrieved 2019/03/20 18:00 UTC (2 hours ago):

RPLI 201800Z 13001KT 9999 R19/P2000N FEW015 25/24 Q1012 NOSIG RMK A2988

TAF (pilot weather forecast)

Retrieved 2019/03/20 18:00 UTC (2 hours ago):

TAF RPLI 201700Z 2018/2118 31006KT 9999 FEW018 SCT290 TEMPO 2018/2024 13006KT FEW018 SCT100